sensor_id;sensor_type;location;lat;lon;timestamp;pressure;altitude;pressure_sealevel;temperature;humidity
23321;BME280;33376;51.306;4.752;2023-06-14T00:00:45;101411.94;;;18.15;100.00
23321;BME280;33376;51.306;4.752;2023-06-14T00:03:11;101406.56;;;18.04;100.00
23321;BME280;33376;51.306;4.752;2023-06-14T00:05:37;101407.41;;;18.04;100.00
23321;BME280;33376;51.306;4.752;2023-06-14T00:08:06;101405.00;;;18.12;100.00
23321;BME280;33376;51.306;4.752;2023-06-14T00:10:33;101420.22;;;18.01;100.00
23321;BME280;33376;51.306;4.752;2023-06-14T00:13:00;101402.19;;;18.14;100.00
23321;BME280;33376;51.306;4.752;2023-06-14T00:15:25;101391.19;;;18.06;100.00
23321;BME280;33376;51.306;4.752;2023-06-14T00:17:51;101383.28;;;18.15;100.00
23321;BME280;33376;51.306;4.752;2023-06-14T00:20:16;101389.13;;;18.09;100.00
23321;BME280;33376;51.306;4.752;2023-06-14T00:22:41;101383.66;;;18.11;100.00
23321;BME280;33376;51.306;4.752;2023-06-14T00:25:06;101400.19;;;18.05;100.00
23321;BME280;33376;51.306;4.752;2023-06-14T00:27:32;101421.63;;;17.94;100.00
23321;BME280;33376;51.306;4.752;2023-06-14T00:29:57;101419.94;;;17.93;100.00
23321;BME280;33376;51.306;4.752;2023-06-14T00:32:23;101399.84;;;17.98;100.00
23321;BME280;33376;51.306;4.752;2023-06-14T00:34:50;101369.63;;;18.18;100.00
23321;BME280;33376;51.306;4.752;2023-06-14T00:37:16;101387.03;;;18.02;100.00
23321;BME280;33376;51.306;4.752;2023-06-14T00:39:41;101374.50;;;18.13;100.00
23321;BME280;33376;51.306;4.752;2023-06-14T00:42:06;101387.03;;;18.02;100.00
23321;BME280;33376;51.306;4.752;2023-06-14T00:44:32;101388.00;;;18.01;100.00
23321;BME280;33376;51.306;4.752;2023-06-14T00:46:57;101383.28;;;18.04;100.00
23321;BME280;33376;51.306;4.752;2023-06-14T00:49:22;101387.25;;;17.99;100.00
23321;BME280;33376;51.306;4.752;2023-06-14T00:51:48;101394.53;;;17.86;100.00
23321;BME280;33376;51.306;4.752;2023-06-14T00:54:13;101383.81;;;17.86;100.00
23321;BME280;33376;51.306;4.752;2023-06-14T00:56:39;101366.16;;;17.94;100.00
23321;BME280;33376;51.306;4.752;2023-06-14T00:59:04;101368.44;;;17.88;100.00
23321;BME280;33376;51.306;4.752;2023-06-14T01:01:30;101360.66;;;17.96;100.00
23321;BME280;33376;51.306;4.752;2023-06-14T01:03:58;101358.22;;;17.93;100.00
23321;BME280;33376;51.306;4.752;2023-06-14T01:06:27;101369.22;;;18.01;100.00
23321;BME280;33376;51.306;4.752;2023-06-14T01:09:07;101359.69;;;17.97;100.00
23321;BME280;33376;51.306;4.752;2023-06-14T01:11:44;101355.81;;;18.01;100.00
23321;BME280;33376;51.306;4.752;2023-06-14T01:14:12;101361.03;;;17.91;100.00
23321;BME280;33376;51.306;4.752;2023-06-14T01:16:39;101351.88;;;17.94;100.00
23321;BME280;33376;51.306;4.752;2023-06-14T01:19:05;101369.78;;;17.82;100.00
23321;BME280;33376;51.306;4.752;2023-06-14T01:21:32;101358.31;;;17.80;100.00
23321;BME280;33376;51.306;4.752;2023-06-14T01:24:06;101345.03;;;17.90;100.00
23321;BME280;33376;51.306;4.752;2023-06-14T01:26:32;101318.22;;;17.90;100.00
23321;BME280;33376;51.306;4.752;2023-06-14T01:28:57;101311.88;;;17.91;100.00
23321;BME280;33376;51.306;4.752;2023-06-14T01:31:23;101313.47;;;17.93;100.00
23321;BME280;33376;51.306;4.752;2023-06-14T01:33:49;101325.88;;;17.83;100.00
23321;BME280;33376;51.306;4.752;2023-06-14T01:36:17;101290.16;;;17.94;100.00
23321;BME280;33376;51.306;4.752;2023-06-14T01:38:43;101314.75;;;17.77;100.00
23321;BME280;33376;51.306;4.752;2023-06-14T01:41:09;101310.16;;;17.79;100.00
23321;BME280;33376;51.306;4.752;2023-06-14T01:43:34;101327.63;;;17.61;100.00
23321;BME280;33376;51.306;4.752;2023-06-14T01:46:00;101325.69;;;17.63;100.00
23321;BME280;33376;51.306;4.752;2023-06-14T01:48:26;101319.47;;;17.62;100.00
23321;BME280;33376;51.306;4.752;2023-06-14T01:50:52;101324.06;;;17.49;100.00
23321;BME280;33376;51.306;4.752;2023-06-14T01:53:17;101302.19;;;17.66;100.00
23321;BME280;33376;51.306;4.752;2023-06-14T01:55:42;101321.50;;;17.47;100.00
23321;BME280;33376;51.306;4.752;2023-06-14T01:58:08;101319.78;;;17.46;100.00
23321;BME280;33376;51.306;4.752;2023-06-14T02:00:33;101311.75;;;17.46;100.00
23321;BME280;33376;51.306;4.752;2023-06-14T02:02:59;101330.66;;;17.32;100.00
23321;BME280;33376;51.306;4.752;2023-06-14T02:05:24;101329.53;;;17.24;100.00
23321;BME280;33376;51.306;4.752;2023-06-14T02:07:50;101332.53;;;17.19;100.00
23321;BME280;33376;51.306;4.752;2023-06-14T02:10:15;101305.56;;;17.33;100.00
23321;BME280;33376;51.306;4.752;2023-06-14T02:12:42;101333.72;;;17.15;100.00
23321;BME280;33376;51.306;4.752;2023-06-14T02:15:07;101320.63;;;17.23;100.00
23321;BME280;33376;51.306;4.752;2023-06-14T02:17:33;101323.00;;;17.15;100.00
23321;BME280;33376;51.306;4.752;2023-06-14T02:19:59;101349.44;;;16.96;100.00
23321;BME280;33376;51.306;4.752;2023-06-14T02:22:24;101362.94;;;16.95;100.00
23321;BME280;33376;51.306;4.752;2023-06-14T02:24:50;101383.16;;;16.75;100.00
23321;BME280;33376;51.306;4.752;2023-06-14T02:27:15;101414.22;;;16.65;100.00
23321;BME280;33376;51.306;4.752;2023-06-14T02:29:41;101406.81;;;16.56;100.00
23321;BME280;33376;51.306;4.752;2023-06-14T02:32:07;101433.00;;;16.53;100.00
23321;BME280;33376;51.306;4.752;2023-06-14T02:34:32;101432.66;;;16.45;100.00
23321;BME280;33376;51.306;4.752;2023-06-14T02:36:58;101432.84;;;16.42;100.00
23321;BME280;33376;51.306;4.752;2023-06-14T02:39:23;101489.22;;;16.26;100.00
23321;BME280;33376;51.306;4.752;2023-06-14T02:41:49;101462.25;;;16.29;100.00
23321;BME280;33376;51.306;4.752;2023-06-14T02:44:15;101475.56;;;16.31;100.00
23321;BME280;33376;51.306;4.752;2023-06-14T02:46:42;101503.13;;;16.19;100.00
23321;BME280;33376;51.306;4.752;2023-06-14T02:49:08;101549.00;;;16.00;100.00
23321;BME280;33376;51.306;4.752;2023-06-14T02:51:34;101525.16;;;16.09;100.00
23321;BME280;33376;51.306;4.752;2023-06-14T02:53:59;101537.06;;;15.91;100.00
23321;BME280;33376;51.306;4.752;2023-06-14T02:56:24;101541.16;;;15.97;100.00
23321;BME280;33376;51.306;4.752;2023-06-14T02:58:51;101565.47;;;15.80;100.00
23321;BME280;33376;51.306;4.752;2023-06-14T03:01:16;101553.06;;;15.79;100.00
23321;BME280;33376;51.306;4.752;2023-06-14T03:03:42;101575.91;;;15.70;100.00
23321;BME280;33376;51.306;4.752;2023-06-14T03:06:07;101575.16;;;15.68;100.00
23321;BME280;33376;51.306;4.752;2023-06-14T03:08:33;101561.78;;;15.68;100.00
23321;BME280;33376;51.306;4.752;2023-06-14T03:11:03;101587.28;;;15.60;100.00
23321;BME280;33376;51.306;4.752;2023-06-14T03:13:30;101604.47;;;15.56;100.00
23321;BME280;33376;51.306;4.752;2023-06-14T03:15:57;101585.09;;;15.66;100.00
23321;BME280;33376;51.306;4.752;2023-06-14T03:18:22;101615.53;;;15.50;100.00
23321;BME280;33376;51.306;4.752;2023-06-14T03:20:47;101640.63;;;15.33;100.00
23321;BME280;33376;51.306;4.752;2023-06-14T03:23:13;101612.06;;;15.34;100.00
23321;BME280;33376;51.306;4.752;2023-06-14T03:25:38;101625.25;;;15.37;100.00
23321;BME280;33376;51.306;4.752;2023-06-14T03:28:05;101638.13;;;15.30;100.00
23321;BME280;33376;51.306;4.752;2023-06-14T03:30:30;101664.81;;;15.16;100.00
23321;BME280;33376;51.306;4.752;2023-06-14T03:32:56;101666.19;;;15.23;100.00
23321;BME280;33376;51.306;4.752;2023-06-14T03:35:22;101600.47;;;15.49;100.00
23321;BME280;33376;51.306;4.752;2023-06-14T03:37:53;101631.97;;;15.44;100.00
23321;BME280;33376;51.306;4.752;2023-06-14T03:40:28;101625.25;;;15.37;100.00
23321;BME280;33376;51.306;4.752;2023-06-14T03:42:54;101617.06;;;15.40;100.00
23321;BME280;33376;51.306;4.752;2023-06-14T03:45:20;101583.53;;;15.62;100.00
23321;BME280;33376;51.306;4.752;2023-06-14T03:47:45;101531.81;;;15.90;100.00
23321;BME280;33376;51.306;4.752;2023-06-14T03:50:11;101568.53;;;15.74;100.00
23321;BME280;33376;51.306;4.752;2023-06-14T03:52:37;101593.00;;;15.68;100.00
23321;BME280;33376;51.306;4.752;2023-06-14T03:55:02;101607.41;;;15.65;100.00
23321;BME280;33376;51.306;4.752;2023-06-14T03:57:29;101610.78;;;15.55;100.00
23321;BME280;33376;51.306;4.752;2023-06-14T03:59:55;101626.91;;;15.53;100.00
23321;BME280;33376;51.306;4.752;2023-06-14T04:02:20;101633.88;;;15.56;100.00
23321;BME280;33376;51.306;4.752;2023-06-14T04:04:45;101659.00;;;15.53;100.00
23321;BME280;33376;51.306;4.752;2023-06-14T04:07:14;101665.41;;;15.51;100.00
23321;BME280;33376;51.306;4.752;2023-06-14T04:09:40;101673.66;;;15.46;100.00
23321;BME280;33376;51.306;4.752;2023-06-14T04:12:06;101696.03;;;15.45;100.00
23321;BME280;33376;51.306;4.752;2023-06-14T04:14:31;101681.34;;;15.52;100.00
23321;BME280;33376;51.306;4.752;2023-06-14T04:16:58;101671.78;;;15.48;100.00
23321;BME280;33376;51.306;4.752;2023-06-14T04:19:23;101664.25;;;15.55;100.00
23321;BME280;33376;51.306;4.752;2023-06-14T04:21:48;101690.19;;;15.53;100.00
23321;BME280;33376;51.306;4.752;2023-06-14T04:24:14;101673.59;;;15.62;100.00
23321;BME280;33376;51.306;4.752;2023-06-14T04:26:41;101689.44;;;15.65;100.00
23321;BME280;33376;51.306;4.752;2023-06-14T04:29:13;101703.94;;;15.61;100.00
23321;BME280;33376;51.306;4.752;2023-06-14T04:31:45;101698.59;;;15.75;100.00
23321;BME280;33376;51.306;4.752;2023-06-14T04:34:10;101685.69;;;15.81;100.00
23321;BME280;33376;51.306;4.752;2023-06-14T04:36:41;101697.66;;;15.90;100.00
23321;BME280;33376;51.306;4.752;2023-06-14T04:39:17;101705.69;;;15.90;100.00
23321;BME280;33376;51.306;4.752;2023-06-14T04:41:48;101691.34;;;16.05;100.00
23321;BME280;33376;51.306;4.752;2023-06-14T04:44:18;101700.47;;;16.15;100.00
23321;BME280;33376;51.306;4.752;2023-06-14T04:46:44;101689.56;;;16.32;100.00
23321;BME280;33376;51.306;4.752;2023-06-14T04:49:11;101682.34;;;16.47;100.00
23321;BME280;33376;51.306;4.752;2023-06-14T04:51:40;101671.63;;;16.61;100.00
23321;BME280;33376;51.306;4.752;2023-06-14T04:54:06;101677.53;;;16.66;100.00
23321;BME280;33376;51.306;4.752;2023-06-14T04:56:34;101662.88;;;16.84;100.00
23321;BME280;33376;51.306;4.752;2023-06-14T04:59:00;101677.06;;;16.98;100.00
23321;BME280;33376;51.306;4.752;2023-06-14T05:01:25;101667.03;;;17.14;100.00
23321;BME280;33376;51.306;4.752;2023-06-14T05:03:51;101648.81;;;17.32;100.00
23321;BME280;33376;51.306;4.752;2023-06-14T05:06:16;101611.06;;;17.47;100.00
23321;BME280;33376;51.306;4.752;2023-06-14T05:08:42;101595.72;;;17.62;100.00
23321;BME280;33376;51.306;4.752;2023-06-14T05:11:07;101561.06;;;17.95;100.00
23321;BME280;33376;51.306;4.752;2023-06-14T05:13:33;101549.78;;;18.03;100.00
23321;BME280;33376;51.306;4.752;2023-06-14T05:15:59;101534.34;;;18.17;100.00
23321;BME280;33376;51.306;4.752;2023-06-14T05:18:25;101515.38;;;18.31;100.00
23321;BME280;33376;51.306;4.752;2023-06-14T05:20:50;101477.06;;;18.97;100.00
23321;BME280;33376;51.306;4.752;2023-06-14T05:23:16;101288.63;;;20.95;100.00
23321;BME280;33376;51.306;4.752;2023-06-14T05:25:44;101094.03;;;22.46;100.00
23321;BME280;33376;51.306;4.752;2023-06-14T05:28:10;100985.50;;;23.61;100.00
23321;BME280;33376;51.306;4.752;2023-06-14T05:30:37;100886.72;;;23.89;100.00
23321;BME280;33376;51.306;4.752;2023-06-14T05:33:02;100875.19;;;24.67;100.00
23321;BME280;33376;51.306;4.752;2023-06-14T05:35:28;100747.25;;;26.22;100.00
23321;BME280;33376;51.306;4.752;2023-06-14T05:37:54;100661.53;;;25.67;100.00
23321;BME280;33376;51.306;4.752;2023-06-14T05:40:19;100661.94;;;25.93;100.00
23321;BME280;33376;51.306;4.752;2023-06-14T05:42:45;100742.16;;;24.99;100.00
23321;BME280;33376;51.306;4.752;2023-06-14T05:45:10;100733.09;;;25.07;100.00
23321;BME280;33376;51.306;4.752;2023-06-14T05:47:35;100581.63;;;26.56;100.00
23321;BME280;33376;51.306;4.752;2023-06-14T05:50:01;100692.69;;;26.38;100.00
23321;BME280;33376;51.306;4.752;2023-06-14T05:52:26;100578.25;;;26.54;100.00
23321;BME280;33376;51.306;4.752;2023-06-14T05:54:51;100552.00;;;26.61;100.00
23321;BME280;33376;51.306;4.752;2023-06-14T05:57:17;100525.59;;;26.76;100.00
23321;BME280;33376;51.306;4.752;2023-06-14T05:59:42;100557.13;;;27.19;100.00
23321;BME280;33376;51.306;4.752;2023-06-14T06:02:07;100629.28;;;26.16;100.00
23321;BME280;33376;51.306;4.752;2023-06-14T06:04:32;100544.00;;;27.50;100.00
23321;BME280;33376;51.306;4.752;2023-06-14T06:06:58;100497.19;;;27.74;100.00
23321;BME280;33376;51.306;4.752;2023-06-14T06:09:23;100485.03;;;27.36;100.00
23321;BME280;33376;51.306;4.752;2023-06-14T06:11:48;100467.19;;;27.68;100.00
23321;BME280;33376;51.306;4.752;2023-06-14T06:14:13;100550.66;;;26.57;100.00
23321;BME280;33376;51.306;4.752;2023-06-14T06:16:39;100582.19;;;27.29;100.00
23321;BME280;33376;51.306;4.752;2023-06-14T06:19:04;100482.16;;;27.16;100.00
23321;BME280;33376;51.306;4.752;2023-06-14T06:21:29;100613.06;;;26.58;100.00
23321;BME280;33376;51.306;4.752;2023-06-14T06:23:55;100526.22;;;26.78;100.00
23321;BME280;33376;51.306;4.752;2023-06-14T06:26:21;100512.94;;;27.45;100.00
23321;BME280;33376;51.306;4.752;2023-06-14T06:28:47;100556.50;;;27.17;100.00
23321;BME280;33376;51.306;4.752;2023-06-14T06:31:12;100530.53;;;27.42;100.00
23321;BME280;33376;51.306;4.752;2023-06-14T06:33:38;100537.59;;;27.30;100.00
23321;BME280;33376;51.306;4.752;2023-06-14T06:36:04;100503.66;;;27.67;100.00
23321;BME280;33376;51.306;4.752;2023-06-14T06:38:30;100586.75;;;27.01;100.00
23321;BME280;33376;51.306;4.752;2023-06-14T06:40:55;100586.81;;;27.35;100.00
23321;BME280;33376;51.306;4.752;2023-06-14T06:43:21;100472.22;;;28.24;100.00
23321;BME280;33376;51.306;4.752;2023-06-14T06:45:46;100580.50;;;27.56;100.00
23321;BME280;33376;51.306;4.752;2023-06-14T06:48:12;100551.94;;;27.24;100.00
23321;BME280;33376;51.306;4.752;2023-06-14T06:50:37;100452.56;;;28.48;100.00
23321;BME280;33376;51.306;4.752;2023-06-14T06:53:02;100477.13;;;28.68;100.00
23321;BME280;33376;51.306;4.752;2023-06-14T06:55:27;100403.50;;;29.45;100.00
23321;BME280;33376;51.306;4.752;2023-06-14T06:57:53;100322.03;;;29.73;100.00
23321;BME280;33376;51.306;4.752;2023-06-14T07:00:19;100437.66;;;28.77;100.00
23321;BME280;33376;51.306;4.752;2023-06-14T07:02:44;100443.19;;;29.54;100.00
23321;BME280;33376;51.306;4.752;2023-06-14T07:05:09;100394.03;;;29.47;100.00
23321;BME280;33376;51.306;4.752;2023-06-14T07:07:35;100416.09;;;29.52;100.00
23321;BME280;33376;51.306;4.752;2023-06-14T07:10:00;100465.88;;;29.61;100.00
23321;BME280;33376;51.306;4.752;2023-06-14T07:12:28;100429.03;;;29.19;100.00
23321;BME280;33376;51.306;4.752;2023-06-14T07:14:54;100413.69;;;29.18;100.00
23321;BME280;33376;51.306;4.752;2023-06-14T07:17:19;100442.59;;;29.52;100.00
23321;BME280;33376;51.306;4.752;2023-06-14T07:19:45;100370.72;;;30.20;100.00
23321;BME280;33376;51.306;4.752;2023-06-14T07:22:10;100445.50;;;30.45;100.00
23321;BME280;33376;51.306;4.752;2023-06-14T07:24:36;100432.47;;;29.65;100.00
23321;BME280;33376;51.306;4.752;2023-06-14T07:27:01;100454.69;;;29.82;100.00
23321;BME280;33376;51.306;4.752;2023-06-14T07:29:28;100458.84;;;29.27;100.00
23321;BME280;33376;51.306;4.752;2023-06-14T07:31:53;100462.56;;;29.46;100.00
23321;BME280;33376;51.306;4.752;2023-06-14T07:34:18;100442.28;;;28.90;100.00
23321;BME280;33376;51.306;4.752;2023-06-14T07:36:44;100540.97;;;28.74;100.00
23321;BME280;33376;51.306;4.752;2023-06-14T07:39:10;100572.00;;;28.59;100.00
23321;BME280;33376;51.306;4.752;2023-06-14T07:41:35;100441.06;;;29.75;100.00
23321;BME280;33376;51.306;4.752;2023-06-14T07:44:00;100481.44;;;29.54;100.00
23321;BME280;33376;51.306;4.752;2023-06-14T07:46:25;100490.00;;;29.90;100.00
23321;BME280;33376;51.306;4.752;2023-06-14T07:48:51;100452.38;;;30.23;100.00
23321;BME280;33376;51.306;4.752;2023-06-14T07:51:16;100397.22;;;30.20;100.00
23321;BME280;33376;51.306;4.752;2023-06-14T07:53:41;100381.41;;;30.53;100.00
23321;BME280;33376;51.306;4.752;2023-06-14T07:56:07;100401.88;;;29.88;100.00
23321;BME280;33376;51.306;4.752;2023-06-14T07:58:32;100422.59;;;29.64;100.00
23321;BME280;33376;51.306;4.752;2023-06-14T08:00:57;100410.53;;;29.28;100.00
23321;BME280;33376;51.306;4.752;2023-06-14T08:03:23;100503.19;;;29.23;100.00
23321;BME280;33376;51.306;4.752;2023-06-14T08:05:48;100573.09;;;28.72;100.00
23321;BME280;33376;51.306;4.752;2023-06-14T08:08:14;100455.59;;;29.69;100.00
23321;BME280;33376;51.306;4.752;2023-06-14T08:10:39;100433.06;;;30.12;100.00
23321;BME280;33376;51.306;4.752;2023-06-14T08:13:05;100462.25;;;29.80;100.00
23321;BME280;33376;51.306;4.752;2023-06-14T08:15:30;100487.00;;;29.21;100.00
23321;BME280;33376;51.306;4.752;2023-06-14T08:17:56;100484.06;;;29.36;100.00
23321;BME280;33376;51.306;4.752;2023-06-14T08:20:21;100410.69;;;29.90;100.00
23321;BME280;33376;51.306;4.752;2023-06-14T08:22:46;100423.53;;;29.89;100.00
23321;BME280;33376;51.306;4.752;2023-06-14T08:25:13;100499.84;;;29.08;100.00
23321;BME280;33376;51.306;4.752;2023-06-14T08:27:38;100433.47;;;29.77;100.00
23321;BME280;33376;51.306;4.752;2023-06-14T08:30:03;100537.81;;;29.42;100.00
23321;BME280;33376;51.306;4.752;2023-06-14T08:32:29;100494.75;;;30.08;100.00
23321;BME280;33376;51.306;4.752;2023-06-14T08:34:54;100439.25;;;29.43;100.00
23321;BME280;33376;51.306;4.752;2023-06-14T08:37:19;100444.44;;;29.71;100.00
23321;BME280;33376;51.306;4.752;2023-06-14T08:39:45;100473.25;;;29.60;100.00
23321;BME280;33376;51.306;4.752;2023-06-14T08:42:10;100509.41;;;29.75;100.00
23321;BME280;33376;51.306;4.752;2023-06-14T08:44:37;100430.69;;;30.53;100.00
23321;BME280;33376;51.306;4.752;2023-06-14T08:47:02;100362.91;;;29.55;100.00
23321;BME280;33376;51.306;4.752;2023-06-14T08:49:31;100437.03;;;29.08;100.00
23321;BME280;33376;51.306;4.752;2023-06-14T08:51:59;100451.50;;;29.28;100.00
23321;BME280;33376;51.306;4.752;2023-06-14T08:54:25;100439.75;;;29.08;100.00
23321;BME280;33376;51.306;4.752;2023-06-14T08:56:52;100363.69;;;30.06;100.00
23321;BME280;33376;51.306;4.752;2023-06-14T08:59:19;100331.91;;;30.05;100.00
23321;BME280;33376;51.306;4.752;2023-06-14T09:01:46;100233.88;;;30.69;100.00
23321;BME280;33376;51.306;4.752;2023-06-14T09:04:12;100299.94;;;30.55;100.00
23321;BME280;33376;51.306;4.752;2023-06-14T09:06:38;100301.94;;;30.23;100.00
23321;BME280;33376;51.306;4.752;2023-06-14T09:09:03;100411.31;;;30.54;100.00
23321;BME280;33376;51.306;4.752;2023-06-14T09:11:29;100366.50;;;30.24;100.00
23321;BME280;33376;51.306;4.752;2023-06-14T09:13:55;100287.78;;;30.51;100.00
23321;BME280;33376;51.306;4.752;2023-06-14T09:16:20;100317.03;;;29.63;100.00
23321;BME280;33376;51.306;4.752;2023-06-14T09:18:46;100321.66;;;29.19;100.00
23321;BME280;33376;51.306;4.752;2023-06-14T09:21:14;100306.63;;;30.10;100.00
23321;BME280;33376;51.306;4.752;2023-06-14T09:23:41;100308.84;;;30.26;100.00
23321;BME280;33376;51.306;4.752;2023-06-14T09:26:10;100362.75;;;30.19;100.00
23321;BME280;33376;51.306;4.752;2023-06-14T09:28:36;100419.41;;;29.74;100.00
23321;BME280;33376;51.306;4.752;2023-06-14T09:31:01;100331.56;;;29.57;100.00
23321;BME280;33376;51.306;4.752;2023-06-14T09:33:27;100293.22;;;30.01;100.00
23321;BME280;33376;51.306;4.752;2023-06-14T09:35:55;100343.69;;;30.06;100.00
23321;BME280;33376;51.306;4.752;2023-06-14T09:38:20;100270.28;;;29.78;100.00
23321;BME280;33376;51.306;4.752;2023-06-14T09:40:46;100266.03;;;29.51;100.00
23321;BME280;33376;51.306;4.752;2023-06-14T09:43:11;100256.78;;;29.83;100.00
23321;BME280;33376;51.306;4.752;2023-06-14T09:45:37;100349.97;;;30.13;100.00
23321;BME280;33376;51.306;4.752;2023-06-14T09:48:04;100293.56;;;29.49;100.00
23321;BME280;33376;51.306;4.752;2023-06-14T09:50:30;100294.25;;;29.76;100.00
23321;BME280;33376;51.306;4.752;2023-06-14T09:52:56;100310.72;;;29.69;100.00
23321;BME280;33376;51.306;4.752;2023-06-14T09:55:24;100369.03;;;29.50;100.00
23321;BME280;33376;51.306;4.752;2023-06-14T09:57:52;100416.28;;;29.57;100.00
23321;BME280;33376;51.306;4.752;2023-06-14T10:00:19;100167.53;;;29.95;100.00
23321;BME280;33376;51.306;4.752;2023-06-14T10:02:45;100318.53;;;29.59;100.00
23321;BME280;33376;51.306;4.752;2023-06-14T10:05:15;100312.66;;;29.56;100.00
23321;BME280;33376;51.306;4.752;2023-06-14T10:07:44;100181.78;;;29.97;100.00
23321;BME280;33376;51.306;4.752;2023-06-14T10:10:13;100288.66;;;30.27;100.00
23321;BME280;33376;51.306;4.752;2023-06-14T10:12:38;100201.88;;;30.09;100.00
23321;BME280;33376;51.306;4.752;2023-06-14T10:15:03;100280.91;;;30.17;100.00
23321;BME280;33376;51.306;4.752;2023-06-14T10:19:57;100319.31;;;29.73;100.00
23321;BME280;33376;51.306;4.752;2023-06-14T10:22:29;100264.13;;;29.82;100.00
23321;BME280;33376;51.306;4.752;2023-06-14T10:24:55;100237.44;;;30.09;100.00
23321;BME280;33376;51.306;4.752;2023-06-14T10:27:21;100352.44;;;30.45;100.00
23321;BME280;33376;51.306;4.752;2023-06-14T10:32:17;100244.41;;;30.05;100.00
23321;BME280;33376;51.306;4.752;2023-06-14T10:34:44;100147.38;;;30.98;100.00
23321;BME280;33376;51.306;4.752;2023-06-14T10:37:12;100240.44;;;30.26;100.00
23321;BME280;33376;51.306;4.752;2023-06-14T10:39:39;100247.59;;;29.77;100.00
23321;BME280;33376;51.306;4.752;2023-06-14T10:42:06;100225.66;;;30.33;100.00
23321;BME280;33376;51.306;4.752;2023-06-14T10:46:59;100289.50;;;30.45;100.00
23321;BME280;33376;51.306;4.752;2023-06-14T10:49:41;100128.19;;;30.14;100.00
23321;BME280;33376;51.306;4.752;2023-06-14T10:52:13;100262.81;;;30.41;100.00
23321;BME280;33376;51.306;4.752;2023-06-14T10:55:00;100299.06;;;30.36;100.00
23321;BME280;33376;51.306;4.752;2023-06-14T10:57:26;100145.09;;;30.65;100.00
23321;BME280;33376;51.306;4.752;2023-06-14T10:59:52;100262.75;;;29.73;100.00
23321;BME280;33376;51.306;4.752;2023-06-14T11:04:57;100310.66;;;30.07;100.00
23321;BME280;33376;51.306;4.752;2023-06-14T11:12:36;100055.56;;;30.00;100.00
23321;BME280;33376;51.306;4.752;2023-06-14T11:15:02;100169.09;;;30.45;100.00
23321;BME280;33376;51.306;4.752;2023-06-14T11:17:27;100176.03;;;29.87;100.00
23321;BME280;33376;51.306;4.752;2023-06-14T11:20:11;100151.88;;;30.27;100.00
23321;BME280;33376;51.306;4.752;2023-06-14T11:22:43;100083.56;;;30.50;100.00
23321;BME280;33376;51.306;4.752;2023-06-14T11:25:09;100225.19;;;30.54;100.00
23321;BME280;33376;51.306;4.752;2023-06-14T11:27:35;100138.13;;;30.09;100.00
23321;BME280;33376;51.306;4.752;2023-06-14T11:30:00;99946.88;;;31.07;100.00
23321;BME280;33376;51.306;4.752;2023-06-14T11:32:25;100215.16;;;30.30;100.00
23321;BME280;33376;51.306;4.752;2023-06-14T11:34:51;99933.94;;;30.62;100.00
23321;BME280;33376;51.306;4.752;2023-06-14T11:37:16;100124.78;;;30.19;100.00
23321;BME280;33376;51.306;4.752;2023-06-14T11:39:45;100156.94;;;29.49;100.00
23321;BME280;33376;51.306;4.752;2023-06-14T11:42:13;100047.28;;;29.46;100.00
23321;BME280;33376;51.306;4.752;2023-06-14T11:44:38;100079.03;;;30.08;100.00
23321;BME280;33376;51.306;4.752;2023-06-14T11:47:04;100199.81;;;30.05;100.00
23321;BME280;33376;51.306;4.752;2023-06-14T11:49:29;100074.25;;;30.03;100.00
23321;BME280;33376;51.306;4.752;2023-06-14T11:51:59;100061.44;;;30.22;100.00
23321;BME280;33376;51.306;4.752;2023-06-14T11:54:26;100095.91;;;30.23;100.00
23321;BME280;33376;51.306;4.752;2023-06-14T11:56:52;99992.88;;;29.62;100.00
23321;BME280;33376;51.306;4.752;2023-06-14T11:59:17;100035.91;;;29.49;100.00
23321;BME280;33376;51.306;4.752;2023-06-14T12:01:42;100064.50;;;29.22;100.00
23321;BME280;33376;51.306;4.752;2023-06-14T12:04:08;100065.31;;;29.53;100.00
23321;BME280;33376;51.306;4.752;2023-06-14T12:06:33;100166.03;;;30.17;100.00
23321;BME280;33376;51.306;4.752;2023-06-14T12:09:04;99916.31;;;30.17;100.00
23321;BME280;33376;51.306;4.752;2023-06-14T12:11:32;100158.09;;;29.91;100.00
23321;BME280;33376;51.306;4.752;2023-06-14T12:13:58;100048.91;;;30.62;100.00
23321;BME280;33376;51.306;4.752;2023-06-14T12:16:29;99946.56;;;29.31;100.00
23321;BME280;33376;51.306;4.752;2023-06-14T12:18:55;100149.63;;;29.74;100.00
23321;BME280;33376;51.306;4.752;2023-06-14T12:21:22;100098.03;;;29.60;100.00
23321;BME280;33376;51.306;4.752;2023-06-14T12:23:48;100116.53;;;29.82;100.00
23321;BME280;33376;51.306;4.752;2023-06-14T12:26:15;100042.97;;;30.17;100.00
23321;BME280;33376;51.306;4.752;2023-06-14T12:28:41;100287.75;;;30.01;100.00
23321;BME280;33376;51.306;4.752;2023-06-14T12:31:09;100211.84;;;29.17;100.00
23321;BME280;33376;51.306;4.752;2023-06-14T12:33:34;100123.25;;;29.00;100.00
23321;BME280;33376;51.306;4.752;2023-06-14T12:36:02;100151.88;;;28.91;100.00
23321;BME280;33376;51.306;4.752;2023-06-14T12:38:28;100175.72;;;28.71;100.00
23321;BME280;33376;51.306;4.752;2023-06-14T12:40:53;100258.47;;;28.32;100.00
23321;BME280;33376;51.306;4.752;2023-06-14T12:43:18;100264.78;;;28.19;100.00
23321;BME280;33376;51.306;4.752;2023-06-14T12:45:44;100297.91;;;28.16;100.00
23321;BME280;33376;51.306;4.752;2023-06-14T12:48:09;100133.44;;;28.29;100.00
23321;BME280;33376;51.306;4.752;2023-06-14T12:50:34;100311.66;;;28.87;100.00